Time;durP1;ratioP1;P1;durP2;ratioP2;P2;SDS_P1;SDS_P2;PMS_P1;PMS_P2;Temp;Humidity;BMP_temperature;BMP_pressure;BME280_temperature;BME280_humidity;BME280_pressure;Samples;Min_cycle;Max_cycle;Signal;HPM_P1;HPM_P2
2021/03/21 00:00:43;;;;;;;4.82;0.70;;;;;;;;;;5005507;28;20048;-59
2021/03/21 00:03:09;;;;;;;3.30;0.50;;;;;;;;;;5005443;28;20041;-57
2021/03/21 00:05:35;;;;;;;2.33;0.57;;;;;;;;;;5004578;28;20089;-57
2021/03/21 00:08:06;;;;;;;2.38;0.52;;;;;;;;;;5005854;28;20163;-58
2021/03/21 00:10:32;;;;;;;25.58;2.00;;;;;;;;;;5003283;28;20553;-58
2021/03/21 00:12:59;;;;;;;4.68;0.70;;;;;;;;;;5005991;28;20045;-59
2021/03/21 00:15:25;;;;;;;2.67;0.63;;;;;;;;;;5004535;28;20041;-58
2021/03/21 00:17:51;;;;;;;2.25;0.60;;;;;;;;;;5005055;28;20574;-59
2021/03/21 00:20:19;;;;;;;2.00;0.80;;;;;;;;;;5008048;28;20032;-57
2021/03/21 00:22:45;;;;;;;1.98;0.55;;;;;;;;;;5033522;28;20044;-57
2021/03/21 00:25:13;;;;;;;3.40;0.82;;;;;;;;;;5031971;28;20130;-59
2021/03/21 00:27:38;;;;;;;3.45;0.60;;;;;;;;;;5032603;28;20536;-58
2021/03/21 00:30:06;;;;;;;6.22;1.08;;;;;;;;;;5032683;28;20104;-60
2021/03/21 00:32:32;;;;;;;3.50;0.70;;;;;;;;;;5034566;28;20609;-56
2021/03/21 00:34:58;;;;;;;4.75;0.77;;;;;;;;;;5034506;28;20041;-58
2021/03/21 00:37:24;;;;;;;2.85;0.43;;;;;;;;;;5032745;28;20150;-58
2021/03/21 00:39:50;;;;;;;5.70;0.70;;;;;;;;;;5033081;28;20134;-58
2021/03/21 00:42:16;;;;;;;10.43;1.30;;;;;;;;;;5031807;28;20065;-59
2021/03/21 00:44:42;;;;;;;2.72;0.75;;;;;;;;;;5032657;28;20037;-59
2021/03/21 00:47:07;;;;;;;5.53;1.60;;;;;;;;;;5032046;28;20043;-59
2021/03/21 00:49:33;;;;;;;3.97;0.82;;;;;;;;;;5030236;28;20048;-58
2021/03/21 00:51:59;;;;;;;2.17;0.80;;;;;;;;;;5032044;28;20063;-59
2021/03/21 00:54:25;;;;;;;4.32;1.30;;;;;;;;;;5030237;28;20030;-59
2021/03/21 00:56:51;;;;;;;3.75;1.50;;;;;;;;;;5033992;28;20041;-59
2021/03/21 00:59:17;;;;;;;6.93;3.60;;;;;;;;;;5035154;28;20037;-58
2021/03/21 01:01:43;;;;;;;5.60;2.88;;;;;;;;;;5035194;28;20049;-58
2021/03/21 01:04:09;;;;;;;3.50;1.35;;;;;;;;;;5034307;28;20041;-59
2021/03/21 01:06:35;;;;;;;6.20;1.25;;;;;;;;;;5033024;28;20064;-58
2021/03/21 01:09:04;;;;;;;3.40;1.00;;;;;;;;;;5035873;28;20469;-57
2021/03/21 01:11:32;;;;;;;4.65;1.30;;;;;;;;;;5036217;28;20123;-57
2021/03/21 01:13:59;;;;;;;6.88;1.75;;;;;;;;;;5038145;28;20043;-58
2021/03/21 01:16:26;;;;;;;3.63;0.77;;;;;;;;;;5036172;28;20041;-58
2021/03/21 01:18:53;;;;;;;5.60;1.02;;;;;;;;;;5035379;28;20434;-59
2021/03/21 01:21:20;;;;;;;3.45;0.95;;;;;;;;;;5035180;28;20052;-64
2021/03/21 01:23:46;;;;;;;4.85;0.68;;;;;;;;;;5034841;28;20037;-56
2021/03/21 01:26:13;;;;;;;3.60;0.80;;;;;;;;;;5034395;28;20414;-59
2021/03/21 01:28:39;;;;;;;2.58;0.70;;;;;;;;;;5035869;28;20037;-59
2021/03/21 01:31:06;;;;;;;4.28;0.90;;;;;;;;;;5034987;28;20045;-58
2021/03/21 01:33:33;;;;;;;3.10;0.80;;;;;;;;;;5034294;28;20076;-58
2021/03/21 01:35:59;;;;;;;6.32;0.65;;;;;;;;;;5037371;28;20117;-57
2021/03/21 01:38:25;;;;;;;3.22;1.25;;;;;;;;;;5038129;28;20060;-58
2021/03/21 01:40:56;;;;;;;4.35;1.10;;;;;;;;;;5036759;28;20041;-57
2021/03/21 01:43:31;;;;;;;5.10;1.27;;;;;;;;;;5036110;28;20037;-57
2021/03/21 01:45:58;;;;;;;2.83;1.13;;;;;;;;;;5037466;28;20048;-52
2021/03/21 01:48:35;;;;;;;3.08;0.80;;;;;;;;;;5034249;28;20124;-56
2021/03/21 01:56:10;;;;;;;2.28;0.80;;;;;;;;;;5014890;28;20981;-57
2021/03/21 01:58:37;;;;;;;3.38;0.80;;;;;;;;;;4980513;28;20093;-55
2021/03/21 02:01:07;;;;;;;4.35;0.77;;;;;;;;;;4978589;28;20117;-55
2021/03/21 02:03:33;;;;;;;3.17;0.80;;;;;;;;;;4978231;28;20161;-56
2021/03/21 02:06:09;;;;;;;2.70;0.73;;;;;;;;;;4977379;28;20097;-56
2021/03/21 02:08:51;;;;;;;4.78;1.40;;;;;;;;;;4978054;28;20046;-58
2021/03/21 02:11:29;;;;;;;8.43;2.55;;;;;;;;;;4976568;28;20050;-56
2021/03/21 02:13:55;;;;;;;8.38;3.42;;;;;;;;;;4990158;28;20054;-56
2021/03/21 02:16:31;;;;;;;5.80;2.70;;;;;;;;;;4996982;28;20192;-57
2021/03/21 02:19:01;;;;;;;5.15;1.00;;;;;;;;;;4997607;28;20034;-58
2021/03/21 02:21:27;;;;;;;6.07;0.93;;;;;;;;;;4996423;28;20044;-53
2021/03/21 02:24:02;;;;;;;4.80;0.80;;;;;;;;;;4996223;28;20081;-63
2021/03/21 02:26:28;;;;;;;3.45;0.77;;;;;;;;;;4997067;28;20438;-57
2021/03/21 02:29:12;;;;;;;4.57;0.95;;;;;;;;;;4996475;28;20046;-54
2021/03/21 02:31:51;;;;;;;7.68;0.90;;;;;;;;;;4994711;28;20735;-56
2021/03/21 02:34:23;;;;;;;4.68;0.75;;;;;;;;;;5029219;28;20050;-56
2021/03/21 02:36:56;;;;;;;4.40;0.70;;;;;;;;;;4997507;28;20484;-55
2021/03/21 02:39:24;;;;;;;3.95;0.73;;;;;;;;;;5009891;28;20065;-57
2021/03/21 02:41:53;;;;;;;3.20;0.70;;;;;;;;;;4995583;28;20145;-55
2021/03/21 02:44:34;;;;;;;7.00;1.15;;;;;;;;;;5011031;28;20069;-56
2021/03/21 02:47:04;;;;;;;7.07;1.00;;;;;;;;;;4994842;28;20207;-55
2021/03/21 02:49:33;;;;;;;5.03;1.02;;;;;;;;;;4997006;28;20042;-56
2021/03/21 02:52:02;;;;;;;7.07;2.85;;;;;;;;;;4996276;28;20054;-57
2021/03/21 02:54:30;;;;;;;4.03;1.10;;;;;;;;;;4997195;28;20046;-56
2021/03/21 02:57:00;;;;;;;4.80;1.00;;;;;;;;;;5011028;28;20042;-57
2021/03/21 02:59:28;;;;;;;4.07;1.42;;;;;;;;;;4994571;28;20041;-53
2021/03/21 03:01:57;;;;;;;4.57;1.10;;;;;;;;;;4995747;28;20129;-56
2021/03/21 03:04:26;;;;;;;3.63;0.90;;;;;;;;;;4995709;28;20737;-59
2021/03/21 03:06:58;;;;;;;5.13;1.20;;;;;;;;;;4988145;28;20050;-57
2021/03/21 03:09:29;;;;;;;3.20;1.10;;;;;;;;;;4982032;28;20491;-59
2021/03/21 03:11:57;;;;;;;2.83;1.10;;;;;;;;;;4981370;28;20093;-55
2021/03/21 03:14:26;;;;;;;3.17;1.10;;;;;;;;;;4983324;28;20050;-57
2021/03/21 03:17:10;;;;;;;3.10;1.20;;;;;;;;;;4984303;28;20034;-54
2021/03/21 03:19:58;;;;;;;5.32;1.50;;;;;;;;;;4985020;28;20092;-57
2021/03/21 03:22:36;;;;;;;4.15;1.48;;;;;;;;;;4982480;28;20035;-57
2021/03/21 03:25:11;;;;;;;4.53;1.23;;;;;;;;;;4981514;28;20077;-59
2021/03/21 03:27:55;;;;;;;4.15;1.10;;;;;;;;;;4976427;28;20035;-55
2021/03/21 03:30:23;;;;;;;3.53;1.17;;;;;;;;;;4986525;28;20039;-56
2021/03/21 03:32:49;;;;;;;3.00;0.90;;;;;;;;;;4963957;28;20039;-53
2021/03/21 03:35:16;;;;;;;5.88;1.30;;;;;;;;;;4964967;28;20498;-54
2021/03/21 03:37:42;;;;;;;5.85;1.80;;;;;;;;;;4961766;28;20177;-55
2021/03/21 03:40:09;;;;;;;7.13;3.00;;;;;;;;;;4963952;28;20043;-56
2021/03/21 03:42:41;;;;;;;4.25;1.50;;;;;;;;;;4963638;28;20471;-53
2021/03/21 03:45:07;;;;;;;6.15;1.95;;;;;;;;;;4964568;28;20042;-52
2021/03/21 03:47:33;;;;;;;6.85;2.03;;;;;;;;;;4963045;28;20039;-54
2021/03/21 03:50:00;;;;;;;7.15;2.90;;;;;;;;;;4963004;28;20050;-56
2021/03/21 03:52:29;;;;;;;8.40;2.05;;;;;;;;;;4963027;28;20083;-54
2021/03/21 03:55:01;;;;;;;6.82;1.45;;;;;;;;;;4964841;28;20050;-57
2021/03/21 03:57:41;;;;;;;5.70;1.27;;;;;;;;;;4963221;28;20070;-55
2021/03/21 04:00:14;;;;;;;4.45;1.15;;;;;;;;;;4963752;28;20041;-53
2021/03/21 04:02:42;;;;;;;6.07;1.50;;;;;;;;;;4996357;28;20050;-57
2021/03/21 04:05:13;;;;;;;6.13;1.42;;;;;;;;;;4964704;28;20038;-56
2021/03/21 04:07:43;;;;;;;4.82;1.10;;;;;;;;;;4963235;28;20125;-56
2021/03/21 04:10:21;;;;;;;5.10;1.50;;;;;;;;;;4971136;28;20058;-53
2021/03/21 04:12:47;;;;;;;4.75;1.00;;;;;;;;;;4964737;28;20684;-53
2021/03/21 04:15:15;;;;;;;4.07;0.73;;;;;;;;;;4964435;28;20128;-54
2021/03/21 04:17:47;;;;;;;4.28;0.80;;;;;;;;;;4964901;28;20388;-53
2021/03/21 04:20:35;;;;;;;3.35;0.70;;;;;;;;;;4962637;28;20396;-55
2021/03/21 04:23:05;;;;;;;3.38;0.70;;;;;;;;;;4961766;28;20389;-53
2021/03/21 04:25:34;;;;;;;4.05;0.80;;;;;;;;;;4963384;28;20038;-54
2021/03/21 04:28:14;;;;;;;2.10;0.60;;;;;;;;;;4966409;28;20125;-55
2021/03/21 04:30:43;;;;;;;7.05;0.60;;;;;;;;;;4965919;28;20053;-54
2021/03/21 04:33:15;;;;;;;2.60;0.68;;;;;;;;;;4966819;28;20094;-57
2021/03/21 04:35:46;;;;;;;2.42;0.70;;;;;;;;;;4972780;28;20057;-57
2021/03/21 04:38:23;;;;;;;5.15;1.10;;;;;;;;;;4995587;28;20042;-57
2021/03/21 04:40:49;;;;;;;2.90;1.10;;;;;;;;;;4963393;28;20522;-55
2021/03/21 04:43:26;;;;;;;5.43;1.30;;;;;;;;;;4988697;28;20100;-57
2021/03/21 04:45:54;;;;;;;1.45;0.50;;;;;;;;;;4967431;28;20129;-55
2021/03/21 04:48:24;;;;;;;2.35;0.50;;;;;;;;;;4966117;28;20082;-56
2021/03/21 04:51:10;;;;;;;3.53;0.90;;;;;;;;;;4966110;28;20043;-57
2021/03/21 04:53:50;;;;;;;11.45;1.48;;;;;;;;;;4966929;28;20622;-58
2021/03/21 04:56:19;;;;;;;1.90;0.50;;;;;;;;;;4964458;28;20051;-57
2021/03/21 04:58:49;;;;;;;2.13;0.63;;;;;;;;;;4965235;28;20078;-56
2021/03/21 05:01:26;;;;;;;2.88;0.70;;;;;;;;;;4965200;28;20038;-56
2021/03/21 05:03:58;;;;;;;2.20;0.70;;;;;;;;;;4964320;28;20046;-59
2021/03/21 05:06:32;;;;;;;5.95;0.65;;;;;;;;;;4963948;28;20038;-54
2021/03/21 05:09:01;;;;;;;1.27;0.47;;;;;;;;;;4981315;28;20308;-57
2021/03/21 05:11:33;;;;;;;0.98;0.40;;;;;;;;;;4963801;28;20613;-54
2021/03/21 05:14:01;;;;;;;1.77;0.52;;;;;;;;;;4965245;28;20121;-54
2021/03/21 05:16:33;;;;;;;1.90;0.77;;;;;;;;;;4963993;28;20042;-56
2021/03/21 05:19:05;;;;;;;1.45;0.50;;;;;;;;;;4964800;28;20049;-59
2021/03/21 05:21:44;;;;;;;1.40;0.50;;;;;;;;;;4965532;28;20152;-58
2021/03/21 05:24:23;;;;;;;10.90;0.70;;;;;;;;;;4966179;28;20031;-56
2021/03/21 05:26:58;;;;;;;3.50;0.50;;;;;;;;;;4966773;28;20043;-58
2021/03/21 05:29:46;;;;;;;1.17;0.50;;;;;;;;;;4962702;28;20054;-56
2021/03/21 05:32:12;;;;;;;2.03;0.65;;;;;;;;;;4966400;28;20058;-57
2021/03/21 05:34:41;;;;;;;1.85;0.55;;;;;;;;;;4963532;28;20057;-55
2021/03/21 05:37:24;;;;;;;1.95;0.60;;;;;;;;;;4965262;28;20446;-57
2021/03/21 05:39:53;;;;;;;5.35;0.50;;;;;;;;;;4964167;28;20173;-58
2021/03/21 05:42:30;;;;;;;3.83;0.63;;;;;;;;;;4963859;28;20551;-59
2021/03/21 05:44:59;;;;;;;7.13;0.70;;;;;;;;;;4979668;28;20069;-57
2021/03/21 05:47:34;;;;;;;1.98;0.55;;;;;;;;;;4965147;28;20050;-59
2021/03/21 05:50:18;;;;;;;2.05;0.60;;;;;;;;;;4966593;28;20070;-56
2021/03/21 05:53:02;;;;;;;2.67;0.60;;;;;;;;;;4963713;28;20500;-60
2021/03/21 05:55:37;;;;;;;1.15;0.45;;;;;;;;;;4966294;28;20062;-58
2021/03/21 05:58:09;;;;;;;3.20;0.52;;;;;;;;;;4965076;28;20035;-57
2021/03/21 06:00:54;;;;;;;1.65;0.50;;;;;;;;;;4963937;28;20043;-56
2021/03/21 06:03:20;;;;;;;5.22;0.50;;;;;;;;;;4964626;28;20043;-57
2021/03/21 06:05:49;;;;;;;2.10;0.60;;;;;;;;;;4979254;28;21863;-57
2021/03/21 06:08:15;;;;;;;1.60;0.50;;;;;;;;;;4962714;28;20039;-58
2021/03/21 06:11:04;;;;;;;1.90;0.50;;;;;;;;;;4964980;28;21078;-54
2021/03/21 06:13:53;;;;;;;1.63;0.70;;;;;;;;;;4962845;28;20512;-57
2021/03/21 06:16:37;;;;;;;2.70;0.77;;;;;;;;;;4966290;28;20039;-58
2021/03/21 06:19:02;;;;;;;;;;;;;;;;;;4963788;28;20070;-59
2021/03/21 06:21:28;;;;;;;3.75;0.60;;;;;;;;;;4961565;28;20010;-59
2021/03/21 06:24:16;;;;;;;3.30;0.75;;;;;;;;;;4964535;28;20042;-58
2021/03/21 06:26:44;;;;;;;1.30;0.60;;;;;;;;;;4961823;28;20517;-57
2021/03/21 06:29:32;;;;;;;6.07;0.80;;;;;;;;;;4963263;28;20038;-57
2021/03/21 06:32:09;;;;;;;3.90;0.60;;;;;;;;;;4963521;28;20038;-57
2021/03/21 06:34:44;;;;;;;1.50;0.60;;;;;;;;;;4962201;28;20055;-60
2021/03/21 06:37:25;;;;;;;3.28;0.60;;;;;;;;;;4963351;28;20051;-57
2021/03/21 06:39:59;;;;;;;2.72;0.75;;;;;;;;;;4958713;28;20038;-58
2021/03/21 06:42:44;;;;;;;2.22;0.65;;;;;;;;;;4964960;28;20143;-56
2021/03/21 06:45:28;;;;;;;2.42;0.77;;;;;;;;;;4965651;28;20270;-58
2021/03/21 06:47:54;;;;;;;2.08;0.50;;;;;;;;;;4963977;28;20527;-57
2021/03/21 06:50:25;;;;;;;1.95;0.60;;;;;;;;;;4965796;28;20043;-58
2021/03/21 06:53:12;;;;;;;1.75;0.70;;;;;;;;;;4967269;28;20386;-59
2021/03/21 06:55:44;;;;;;;3.58;0.70;;;;;;;;;;4945473;28;20148;-58
2021/03/21 06:58:28;;;;;;;1.35;0.52;;;;;;;;;;4967519;28;20053;-57
2021/03/21 07:01:11;;;;;;;2.13;0.60;;;;;;;;;;4965247;28;20093;-55
2021/03/21 07:03:45;;;;;;;2.78;0.80;;;;;;;;;;4964040;28;20050;-57
2021/03/21 07:06:30;;;;;;;1.85;0.57;;;;;;;;;;4964818;28;20134;-56
2021/03/21 07:08:56;;;;;;;2.85;0.70;;;;;;;;;;4964391;28;20596;-58
2021/03/21 07:11:40;;;;;;;3.35;0.70;;;;;;;;;;4963870;28;20134;-57
2021/03/21 07:14:09;;;;;;;2.28;0.65;;;;;;;;;;4966570;28;20529;-58
2021/03/21 07:16:40;;;;;;;1.90;0.70;;;;;;;;;;4964812;28;20066;-54
2021/03/21 07:19:19;;;;;;;2.08;0.70;;;;;;;;;;4964917;28;20524;-54
2021/03/21 07:22:06;;;;;;;2.45;0.75;;;;;;;;;;4964056;28;20524;-57
2021/03/21 07:24:44;;;;;;;3.40;0.77;;;;;;;;;;4963240;28;20062;-58
2021/03/21 07:27:13;;;;;;;2.22;0.70;;;;;;;;;;4962221;28;20093;-58
2021/03/21 07:29:48;;;;;;;2.13;0.82;;;;;;;;;;4966142;28;20058;-59
2021/03/21 07:32:13;;;;;;;1.77;0.82;;;;;;;;;;4963360;28;20054;-58
2021/03/21 07:34:48;;;;;;;2.08;0.60;;;;;;;;;;4963378;28;20717;-57
2021/03/21 07:37:26;;;;;;;1.15;0.47;;;;;;;;;;4963465;28;20499;-58
2021/03/21 07:40:07;;;;;;;2.05;0.60;;;;;;;;;;4962834;28;20089;-57
2021/03/21 07:42:33;;;;;;;2.45;0.85;;;;;;;;;;4964220;28;20042;-57
2021/03/21 07:45:11;;;;;;;1.88;0.65;;;;;;;;;;4963906;28;20047;-58
2021/03/21 07:47:36;;;;;;;1.90;0.63;;;;;;;;;;4963049;28;20039;-57
2021/03/21 07:50:02;;;;;;;1.63;0.52;;;;;;;;;;4962689;28;20049;-58
2021/03/21 07:52:44;;;;;;;2.55;0.70;;;;;;;;;;4964541;28;20043;-57
2021/03/21 07:55:12;;;;;;;2.60;0.90;;;;;;;;;;4963948;28;20542;-58
2021/03/21 07:57:41;;;;;;;2.20;0.88;;;;;;;;;;4963152;28;20047;-55
2021/03/21 08:00:09;;;;;;;3.45;0.98;;;;;;;;;;4961319;28;20077;-56
2021/03/21 08:02:35;;;;;;;2.58;0.65;;;;;;;;;;4948075;28;20031;-55
2021/03/21 08:05:21;;;;;;;2.85;0.88;;;;;;;;;;4963076;28;20428;-58
2021/03/21 08:07:49;;;;;;;1.77;0.63;;;;;;;;;;4964541;28;20045;-58
2021/03/21 08:10:24;;;;;;;2.30;0.73;;;;;;;;;;4964644;28;20053;-57
2021/03/21 08:13:00;;;;;;;1.80;0.70;;;;;;;;;;4965053;28;20472;-61
2021/03/21 08:15:28;;;;;;;1.45;0.50;;;;;;;;;;4964625;28;20046;-58
2021/03/21 08:18:00;;;;;;;4.15;1.08;;;;;;;;;;4964799;28;20062;-57
2021/03/21 08:20:28;;;;;;;2.53;0.80;;;;;;;;;;4963187;28;20047;-57
2021/03/21 08:23:12;;;;;;;3.50;1.00;;;;;;;;;;4963488;28;20053;-56
2021/03/21 08:25:38;;;;;;;1.92;0.82;;;;;;;;;;4962587;28;20403;-57
2021/03/21 08:28:04;;;;;;;2.33;1.02;;;;;;;;;;4965121;28;20046;-56
2021/03/21 08:30:48;;;;;;;2.47;0.70;;;;;;;;;;4963151;28;20101;-57
2021/03/21 08:33:29;;;;;;;3.10;0.90;;;;;;;;;;4966179;28;20039;-57
2021/03/21 08:36:06;;;;;;;2.55;0.90;;;;;;;;;;4964863;28;20136;-57
2021/03/21 08:38:32;;;;;;;2.47;0.88;;;;;;;;;;4963276;28;20120;-56
2021/03/21 08:40:58;;;;;;;1.90;0.70;;;;;;;;;;4961758;28;20038;-58
2021/03/21 08:43:33;;;;;;;1.85;0.60;;;;;;;;;;4962086;28;20176;-56
2021/03/21 08:46:02;;;;;;;3.90;1.00;;;;;;;;;;4964272;28;20051;-53
2021/03/21 08:48:34;;;;;;;3.25;0.88;;;;;;;;;;4962636;28;20046;-53
2021/03/21 08:51:12;;;;;;;2.20;0.80;;;;;;;;;;4962534;28;20073;-56
2021/03/21 08:53:41;;;;;;;2.85;0.70;;;;;;;;;;4963074;28;20051;-57
2021/03/21 08:56:16;;;;;;;2.08;0.77;;;;;;;;;;4960719;28;20079;-57
2021/03/21 08:58:43;;;;;;;2.33;0.82;;;;;;;;;;4962519;28;20123;-56
2021/03/21 09:01:13;;;;;;;2.85;0.80;;;;;;;;;;4960965;28;20122;-54
2021/03/21 09:03:39;;;;;;;3.20;0.77;;;;;;;;;;4963053;28;20043;-54
2021/03/21 09:06:05;;;;;;;1.98;0.60;;;;;;;;;;4962604;28;20062;-55
2021/03/21 09:08:33;;;;;;;2.25;0.82;;;;;;;;;;4962442;28;20138;-58
2021/03/21 09:11:01;;;;;;;2.95;0.85;;;;;;;;;;4962621;28;20047;-55
2021/03/21 09:13:31;;;;;;;4.45;1.10;;;;;;;;;;4961551;28;20169;-55
2021/03/21 09:15:57;;;;;;;2.35;0.65;;;;;;;;;;4964502;28;20051;-56
2021/03/21 09:18:24;;;;;;;3.65;0.82;;;;;;;;;;4963453;28;20105;-56
2021/03/21 09:21:00;;;;;;;2.38;0.70;;;;;;;;;;4961643;28;20042;-57
2021/03/21 09:23:32;;;;;;;3.80;0.70;;;;;;;;;;4961567;28;21236;-57
2021/03/21 09:25:59;;;;;;;2.80;1.00;;;;;;;;;;4963381;28;20668;-55
2021/03/21 09:28:26;;;;;;;3.08;0.70;;;;;;;;;;4963325;28;20043;-57
2021/03/21 09:30:53;;;;;;;1.85;0.50;;;;;;;;;;4963794;28;20042;-56
2021/03/21 09:33:25;;;;;;;2.70;0.90;;;;;;;;;;4963626;28;20571;-58
2021/03/21 09:35:56;;;;;;;2.17;0.60;;;;;;;;;;4963208;28;20076;-58
2021/03/21 09:38:24;;;;;;;2.42;0.80;;;;;;;;;;4961444;28;20129;-58
2021/03/21 09:40:52;;;;;;;2.03;0.60;;;;;;;;;;4962616;28;20095;-57
2021/03/21 09:43:22;;;;;;;2.45;0.82;;;;;;;;;;4962252;28;20393;-57
2021/03/21 09:45:51;;;;;;;2.08;0.70;;;;;;;;;;4960488;28;20052;-57
2021/03/21 09:48:40;;;;;;;1.73;0.57;;;;;;;;;;4961903;28;20130;-56
2021/03/21 09:51:12;;;;;;;1.65;0.60;;;;;;;;;;4957325;28;20393;-55
2021/03/21 09:53:46;;;;;;;5.63;0.80;;;;;;;;;;4961016;28;20051;-52
2021/03/21 09:56:20;;;;;;;1.20;0.60;;;;;;;;;;4960572;28;20054;-58
2021/03/21 09:58:51;;;;;;;6.93;0.90;;;;;;;;;;4959897;28;20067;-53
2021/03/21 10:01:26;;;;;;;1.60;0.60;;;;;;;;;;4960633;28;20039;-55
2021/03/21 10:04:05;;;;;;;2.38;0.65;;;;;;;;;;4959976;28;20073;-56
2021/03/21 10:06:36;;;;;;;1.83;0.70;;;;;;;;;;4961284;28;20125;-53
2021/03/21 10:09:10;;;;;;;1.40;0.68;;;;;;;;;;4962424;28;20070;-57
2021/03/21 10:11:40;;;;;;;2.72;0.85;;;;;;;;;;4962563;28;20157;-56
2021/03/21 10:14:24;;;;;;;1.85;0.55;;;;;;;;;;4961884;28;20423;-55
2021/03/21 10:16:51;;;;;;;1.33;0.50;;;;;;;;;;4964118;28;20470;-51
2021/03/21 10:19:51;;;;;;;2.05;0.60;;;;;;;;;;4965579;28;20034;-54
2021/03/21 10:22:20;;;;;;;1.67;0.60;;;;;;;;;;4963689;28;20392;-55
2021/03/21 10:24:47;;;;;;;2.40;0.82;;;;;;;;;;4964836;28;20050;-53
2021/03/21 10:27:22;;;;;;;2.22;0.60;;;;;;;;;;4967567;28;20105;-53
2021/03/21 10:30:06;;;;;;;1.38;0.50;;;;;;;;;;4963472;28;20046;-55
2021/03/21 10:32:33;;;;;;;2.40;0.70;;;;;;;;;;4965352;28;20046;-57
2021/03/21 10:35:00;;;;;;;1.55;0.50;;;;;;;;;;4964426;28;20054;-56
2021/03/21 10:37:41;;;;;;;1.00;0.40;;;;;;;;;;4964564;28;20042;-58
2021/03/21 10:40:13;;;;;;;2.15;0.52;;;;;;;;;;4965102;28;20046;-56
2021/03/21 10:42:43;;;;;;;2.20;0.70;;;;;;;;;;4964989;28;20696;-55
2021/03/21 10:45:11;;;;;;;2.03;0.70;;;;;;;;;;4964760;28;20429;-55
2021/03/21 10:47:38;;;;;;;1.90;0.60;;;;;;;;;;4963518;28;20038;-56
2021/03/21 10:50:14;;;;;;;1.92;0.60;;;;;;;;;;4961727;28;20035;-55
2021/03/21 10:52:41;;;;;;;3.72;0.60;;;;;;;;;;4963383;28;20554;-55
2021/03/21 10:55:13;;;;;;;2.08;0.82;;;;;;;;;;4965606;28;20053;-56
2021/03/21 10:57:45;;;;;;;2.28;0.60;;;;;;;;;;4964107;28;20365;-55
2021/03/21 11:00:13;;;;;;;2.25;0.70;;;;;;;;;;4963558;28;20054;-55
2021/03/21 11:02:43;;;;;;;2.45;0.80;;;;;;;;;;4963605;28;20051;-56
2021/03/21 11:05:23;;;;;;;2.15;0.65;;;;;;;;;;4964474;28;20049;-54
2021/03/21 11:07:48;;;;;;;2.63;0.63;;;;;;;;;;4963490;28;20069;-57
2021/03/21 11:10:14;;;;;;;1.45;0.50;;;;;;;;;;4964342;28;20030;-58
2021/03/21 11:12:42;;;;;;;3.33;0.70;;;;;;;;;;4964478;28;20040;-53
2021/03/21 11:15:34;;;;;;;3.42;0.70;;;;;;;;;;4965197;28;20153;-56
2021/03/21 11:18:04;;;;;;;2.97;0.90;;;;;;;;;;4965422;28;20046;-56
2021/03/21 11:20:33;;;;;;;9.30;0.88;;;;;;;;;;4962990;28;20053;-56
2021/03/21 11:22:58;;;;;;;2.78;0.80;;;;;;;;;;4963306;28;20039;-56
2021/03/21 11:25:34;;;;;;;1.80;0.60;;;;;;;;;;4963543;28;20045;-56
2021/03/21 11:28:00;;;;;;;3.47;0.80;;;;;;;;;;4962265;28;20519;-55
2021/03/21 11:30:29;;;;;;;2.83;0.77;;;;;;;;;;4963772;28;20046;-54
2021/03/21 11:33:16;;;;;;;2.60;0.73;;;;;;;;;;4963919;28;20053;-55
2021/03/21 11:35:42;;;;;;;2.33;0.73;;;;;;;;;;4968260;28;20131;-56
2021/03/21 11:38:26;;;;;;;2.90;0.65;;;;;;;;;;4964559;28;20138;-56
2021/03/21 11:40:54;;;;;;;2.10;0.60;;;;;;;;;;4994345;28;20039;-56
2021/03/21 11:43:20;;;;;;;2.53;0.75;;;;;;;;;;4964215;28;20046;-53
2021/03/21 11:45:47;;;;;;;1.83;0.70;;;;;;;;;;4962559;28;20681;-55
2021/03/21 11:48:33;;;;;;;3.00;0.82;;;;;;;;;;4962720;28;20731;-57
2021/03/21 11:50:59;;;;;;;2.40;0.60;;;;;;;;;;4962759;28;20129;-55
2021/03/21 11:53:36;;;;;;;2.53;0.68;;;;;;;;;;4964793;28;20043;-55
2021/03/21 11:56:05;;;;;;;1.23;0.60;;;;;;;;;;4964875;28;20149;-54
2021/03/21 11:58:30;;;;;;;2.53;0.80;;;;;;;;;;4963144;28;20053;-54
2021/03/21 12:00:59;;;;;;;1.88;0.60;;;;;;;;;;4966227;28;20046;-54
2021/03/21 12:03:25;;;;;;;2.40;0.70;;;;;;;;;;4963306;28;20035;-57
2021/03/21 12:06:02;;;;;;;5.65;0.73;;;;;;;;;;4962440;28;20045;-57
2021/03/21 12:08:35;;;;;;;2.20;0.60;;;;;;;;;;4976275;28;20046;-56
2021/03/21 12:11:21;;;;;;;2.20;0.65;;;;;;;;;;4978468;28;20048;-56
2021/03/21 12:13:47;;;;;;;2.30;0.70;;;;;;;;;;4977708;28;20104;-56
2021/03/21 12:16:31;;;;;;;1.77;0.60;;;;;;;;;;4979492;28;20419;-58
2021/03/21 12:18:57;;;;;;;1.75;0.65;;;;;;;;;;4979140;28;20046;-57
2021/03/21 12:21:24;;;;;;;2.92;0.73;;;;;;;;;;4977422;28;20080;-56
2021/03/21 12:23:51;;;;;;;2.85;0.77;;;;;;;;;;4964120;28;20053;-58
2021/03/21 12:26:17;;;;;;;4.05;1.13;;;;;;;;;;4979044;28;20074;-55
2021/03/21 12:28:50;;;;;;;3.92;0.80;;;;;;;;;;4976492;28;20147;-54
2021/03/21 12:31:20;;;;;;;2.60;0.80;;;;;;;;;;4979282;28;20046;-58
2021/03/21 12:33:46;;;;;;;3.95;0.77;;;;;;;;;;4979744;28;20031;-58
2021/03/21 12:36:14;;;;;;;2.97;0.70;;;;;;;;;;4978273;28;20050;-55
2021/03/21 12:38:46;;;;;;;2.30;0.80;;;;;;;;;;4972947;28;20039;-57
2021/03/21 12:41:21;;;;;;;2.40;0.70;;;;;;;;;;4966030;28;20411;-53
2021/03/21 12:44:07;;;;;;;4.70;0.98;;;;;;;;;;4962210;28;20076;-56
2021/03/21 12:46:44;;;;;;;2.00;0.63;;;;;;;;;;4962292;28;20038;-57
2021/03/21 12:49:29;;;;;;;4.40;1.30;;;;;;;;;;4961597;28;20058;-58
2021/03/21 12:52:03;;;;;;;2.10;0.60;;;;;;;;;;4960564;28;20046;-57
2021/03/21 12:54:29;;;;;;;1.80;0.65;;;;;;;;;;4961835;28;20065;-58
2021/03/21 12:56:54;;;;;;;5.47;0.60;;;;;;;;;;4961551;28;20039;-55
2021/03/21 12:59:21;;;;;;;2.00;0.63;;;;;;;;;;4961900;28;20047;-56
2021/03/21 13:01:48;;;;;;;1.33;0.55;;;;;;;;;;4963102;28;20148;-55
2021/03/21 13:04:14;;;;;;;1.95;0.68;;;;;;;;;;4962853;28;20045;-59
2021/03/21 13:06:40;;;;;;;2.50;0.63;;;;;;;;;;4961919;28;20038;-59
2021/03/21 13:09:07;;;;;;;2.63;0.77;;;;;;;;;;4962381;28;20056;-58
2021/03/21 13:11:33;;;;;;;5.38;0.70;;;;;;;;;;4960683;28;20065;-57
2021/03/21 13:13:59;;;;;;;4.95;0.88;;;;;;;;;;4961286;28;20082;-57
2021/03/21 13:16:25;;;;;;;3.08;0.90;;;;;;;;;;4963767;28;20059;-55
2021/03/21 13:18:51;;;;;;;4.18;0.93;;;;;;;;;;4962343;28;20459;-58
2021/03/21 13:21:17;;;;;;;4.55;0.70;;;;;;;;;;4965976;28;20112;-54
2021/03/21 13:23:43;;;;;;;2.63;0.70;;;;;;;;;;4972354;28;20043;-56
2021/03/21 13:26:09;;;;;;;3.00;0.80;;;;;;;;;;4966216;28;20578;-54
2021/03/21 13:28:35;;;;;;;2.60;0.70;;;;;;;;;;4964522;28;20044;-54
2021/03/21 13:31:01;;;;;;;2.70;0.75;;;;;;;;;;4966508;28;20118;-55
2021/03/21 13:33:29;;;;;;;2.95;0.80;;;;;;;;;;4963948;28;20093;-54
2021/03/21 13:35:55;;;;;;;5.28;0.90;;;;;;;;;;4964009;28;20054;-53
2021/03/21 13:38:22;;;;;;;2.10;0.70;;;;;;;;;;4963629;28;20050;-55
2021/03/21 13:40:48;;;;;;;3.08;0.80;;;;;;;;;;4965132;28;20054;-55
2021/03/21 13:43:15;;;;;;;2.47;0.60;;;;;;;;;;4964179;28;20118;-55
2021/03/21 13:45:42;;;;;;;2.25;0.77;;;;;;;;;;4962703;28;20038;-56
2021/03/21 13:48:09;;;;;;;2.40;0.70;;;;;;;;;;4962048;28;20046;-57
2021/03/21 13:50:35;;;;;;;2.33;0.65;;;;;;;;;;4963072;28;20031;-56
2021/03/21 13:53:02;;;;;;;4.45;0.77;;;;;;;;;;4961649;28;20078;-58
2021/03/21 13:55:31;;;;;;;3.35;0.80;;;;;;;;;;4961368;28;20058;-57
2021/03/21 13:57:58;;;;;;;2.85;0.75;;;;;;;;;;4961800;28;20050;-56
2021/03/21 14:00:24;;;;;;;2.38;0.70;;;;;;;;;;4962287;28;20093;-54
2021/03/21 14:02:50;;;;;;;3.53;1.08;;;;;;;;;;4960608;28;20041;-54
2021/03/21 14:05:17;;;;;;;4.85;1.27;;;;;;;;;;4963831;28;20049;-54
2021/03/21 14:07:42;;;;;;;3.47;0.80;;;;;;;;;;4960025;28;20417;-56
2021/03/21 14:10:09;;;;;;;1.42;0.50;;;;;;;;;;4962282;28;20035;-56
2021/03/21 14:12:35;;;;;;;1.83;0.60;;;;;;;;;;4960996;28;20046;-55
2021/03/21 14:15:01;;;;;;;1.92;0.68;;;;;;;;;;4961987;28;20591;-57
2021/03/21 14:17:27;;;;;;;2.05;0.65;;;;;;;;;;4960552;28;20157;-57
2021/03/21 14:19:53;;;;;;;4.95;0.80;;;;;;;;;;4962356;28;20125;-54
2021/03/21 14:22:18;;;;;;;2.85;0.80;;;;;;;;;;4962757;28;20038;-56
2021/03/21 14:24:44;;;;;;;6.03;1.40;;;;;;;;;;4960971;28;20662;-55
2021/03/21 14:27:10;;;;;;;3.50;0.88;;;;;;;;;;4962339;28;20724;-56
2021/03/21 14:29:36;;;;;;;2.47;0.60;;;;;;;;;;4961894;28;20510;-57
2021/03/21 14:32:02;;;;;;;6.57;2.65;;;;;;;;;;4962987;28;20071;-55
2021/03/21 14:34:28;;;;;;;6.78;1.95;;;;;;;;;;4961802;28;20839;-55
2021/03/21 14:36:54;;;;;;;3.13;0.90;;;;;;;;;;4962858;28;20042;-57
2021/03/21 14:39:20;;;;;;;2.72;0.80;;;;;;;;;;4958861;28;20122;-58
2021/03/21 14:41:46;;;;;;;2.70;0.80;;;;;;;;;;4961385;28;20047;-57
2021/03/21 14:44:12;;;;;;;3.03;0.70;;;;;;;;;;4961129;28;20086;-55
2021/03/21 14:46:38;;;;;;;2.13;0.60;;;;;;;;;;4959592;28;20043;-57
2021/03/21 14:49:04;;;;;;;2.20;0.70;;;;;;;;;;4961895;28;20053;-58
2021/03/21 14:51:30;;;;;;;2.67;0.80;;;;;;;;;;4961295;28;20381;-55
2021/03/21 14:53:56;;;;;;;2.63;0.70;;;;;;;;;;4961438;28;20504;-54
2021/03/21 14:56:22;;;;;;;3.50;0.80;;;;;;;;;;4960335;28;20546;-53
2021/03/21 14:58:48;;;;;;;2.05;0.60;;;;;;;;;;4960879;28;20104;-52
2021/03/21 15:01:13;;;;;;;3.97;0.90;;;;;;;;;;4961496;28;20035;-54
2021/03/21 15:03:41;;;;;;;3.75;0.90;;;;;;;;;;4964548;28;20074;-53
2021/03/21 15:06:07;;;;;;;3.50;0.60;;;;;;;;;;4964111;28;20066;-55
2021/03/21 15:08:35;;;;;;;1.77;0.60;;;;;;;;;;4962490;28;20070;-53
2021/03/21 15:11:01;;;;;;;4.88;1.00;;;;;;;;;;4964046;28;20042;-55